sensor_id;sensor_type;location;lat;lon;timestamp;pressure;altitude;pressure_sealevel;temperature;humidity
58243;BME280;50118;53.232;8.252;2022-08-20T00:00:58;101349.22;;;18.08;100.00
58243;BME280;50118;53.232;8.252;2022-08-20T00:03:27;101333.44;;;18.05;100.00
58243;BME280;50118;53.232;8.252;2022-08-20T00:05:59;101335.47;;;18.03;100.00
58243;BME280;50118;53.232;8.252;2022-08-20T00:08:25;101339.00;;;18.03;100.00
58243;BME280;50118;53.232;8.252;2022-08-20T00:10:52;101332.13;;;18.01;100.00
58243;BME280;50118;53.232;8.252;2022-08-20T00:13:25;101331.28;;;18.00;100.00
58243;BME280;50118;53.232;8.252;2022-08-20T00:15:51;101330.25;;;18.01;100.00
58243;BME280;50118;53.232;8.252;2022-08-20T00:18:17;101334.81;;;18.01;100.00
58243;BME280;50118;53.232;8.252;2022-08-20T00:20:45;101333.25;;;18.06;100.00
58243;BME280;50118;53.232;8.252;2022-08-20T00:23:12;101328.06;;;18.05;100.00
58243;BME280;50118;53.232;8.252;2022-08-20T00:25:38;101326.38;;;18.04;100.00
58243;BME280;50118;53.232;8.252;2022-08-20T00:28:04;101326.38;;;18.04;100.00
58243;BME280;50118;53.232;8.252;2022-08-20T00:30:32;101324.31;;;18.06;100.00
58243;BME280;50118;53.232;8.252;2022-08-20T00:33:03;101320.97;;;18.04;100.00
58243;BME280;50118;53.232;8.252;2022-08-20T00:35:32;101317.28;;;18.05;100.00
58243;BME280;50118;53.232;8.252;2022-08-20T00:37:58;101315.59;;;18.04;100.00
58243;BME280;50118;53.232;8.252;2022-08-20T00:40:29;101314.59;;;18.05;100.00
58243;BME280;50118;53.232;8.252;2022-08-20T00:42:56;101300.25;;;18.04;100.00
58243;BME280;50118;53.232;8.252;2022-08-20T00:45:24;101295.31;;;18.08;100.00
58243;BME280;50118;53.232;8.252;2022-08-20T00:47:49;101304.63;;;18.05;100.00
58243;BME280;50118;53.232;8.252;2022-08-20T00:50:19;101305.44;;;18.06;100.00
58243;BME280;50118;53.232;8.252;2022-08-20T00:52:48;101299.53;;;18.10;100.00
58243;BME280;50118;53.232;8.252;2022-08-20T00:55:16;101295.31;;;18.08;100.00
58243;BME280;50118;53.232;8.252;2022-08-20T00:57:46;101291.97;;;18.06;100.00
58243;BME280;50118;53.232;8.252;2022-08-20T01:00:17;101290.69;;;18.02;100.00
58243;BME280;50118;53.232;8.252;2022-08-20T01:02:43;101294.72;;;17.98;100.00
58243;BME280;50118;53.232;8.252;2022-08-20T01:05:10;101294.09;;;17.96;100.00
58243;BME280;50118;53.232;8.252;2022-08-20T01:07:36;101294.72;;;17.98;100.00
58243;BME280;50118;53.232;8.252;2022-08-20T01:10:13;101302.16;;;17.96;100.00
58243;BME280;50118;53.232;8.252;2022-08-20T01:12:41;101303.56;;;17.91;100.00
58243;BME280;50118;53.232;8.252;2022-08-20T01:15:10;101308.38;;;17.96;100.00
58243;BME280;50118;53.232;8.252;2022-08-20T01:17:41;101300.88;;;17.91;100.00
58243;BME280;50118;53.232;8.252;2022-08-20T01:20:14;101303.56;;;17.91;100.00
58243;BME280;50118;53.232;8.252;2022-08-20T01:23:07;101301.06;;;17.82;100.00
58243;BME280;50118;53.232;8.252;2022-08-20T01:26:02;101315.06;;;17.77;100.00
58243;BME280;50118;53.232;8.252;2022-08-20T01:28:39;101312.94;;;17.72;100.00
58243;BME280;50118;53.232;8.252;2022-08-20T01:31:07;101315.41;;;17.74;100.00
58243;BME280;50118;53.232;8.252;2022-08-20T01:33:33;101314.09;;;17.70;100.00
58243;BME280;50118;53.232;8.252;2022-08-20T01:36:03;101315.09;;;17.69;100.00
58243;BME280;50118;53.232;8.252;2022-08-20T01:38:29;101311.09;;;17.65;100.00
58243;BME280;50118;53.232;8.252;2022-08-20T01:43:32;101315.31;;;17.67;100.00
58243;BME280;50118;53.232;8.252;2022-08-20T01:45:58;101314.09;;;17.70;100.00
58243;BME280;50118;53.232;8.252;2022-08-20T01:48:23;101312.72;;;17.74;100.00
58243;BME280;50118;53.232;8.252;2022-08-20T01:51:10;101317.44;;;17.72;100.00
58243;BME280;50118;53.232;8.252;2022-08-20T01:53:41;101319.50;;;17.70;100.00
58243;BME280;50118;53.232;8.252;2022-08-20T01:56:11;101309.53;;;17.70;100.00
58243;BME280;50118;53.232;8.252;2022-08-20T01:58:40;101312.06;;;17.72;100.00
58243;BME280;50118;53.232;8.252;2022-08-20T02:01:06;101319.16;;;17.73;100.00
58243;BME280;50118;53.232;8.252;2022-08-20T02:03:32;101322.84;;;17.72;100.00
58243;BME280;50118;53.232;8.252;2022-08-20T02:05:59;101322.50;;;17.75;100.00
58243;BME280;50118;53.232;8.252;2022-08-20T02:08:25;101323.16;;;17.77;100.00
58243;BME280;50118;53.232;8.252;2022-08-20T02:10:51;101325.38;;;17.73;100.00
58243;BME280;50118;53.232;8.252;2022-08-20T02:13:16;101327.88;;;17.75;100.00
58243;BME280;50118;53.232;8.252;2022-08-20T02:15:42;101322.50;;;17.75;100.00
58243;BME280;50118;53.232;8.252;2022-08-20T02:18:11;101320.81;;;17.74;100.00
58243;BME280;50118;53.232;8.252;2022-08-20T02:20:38;101315.78;;;17.71;100.00
58243;BME280;50118;53.232;8.252;2022-08-20T02:23:05;101320.09;;;17.80;100.00
58243;BME280;50118;53.232;8.252;2022-08-20T02:25:33;101317.59;;;17.79;100.00
58243;BME280;50118;53.232;8.252;2022-08-20T02:28:03;101329.19;;;17.79;100.00
58243;BME280;50118;53.232;8.252;2022-08-20T02:30:33;101323.44;;;17.82;100.00
58243;BME280;50118;53.232;8.252;2022-08-20T02:33:04;101330.88;;;17.80;100.00
58243;BME280;50118;53.232;8.252;2022-08-20T02:35:39;101331.72;;;17.81;100.00
58243;BME280;50118;53.232;8.252;2022-08-20T02:38:04;101331.72;;;17.81;100.00
58243;BME280;50118;53.232;8.252;2022-08-20T02:40:31;101327.19;;;17.81;100.00
58243;BME280;50118;53.232;8.252;2022-08-20T02:42:57;101334.22;;;17.82;100.00
58243;BME280;50118;53.232;8.252;2022-08-20T02:45:23;101336.91;;;17.82;100.00
58243;BME280;50118;53.232;8.252;2022-08-20T02:47:49;101330.53;;;17.83;100.00
58243;BME280;50118;53.232;8.252;2022-08-20T02:50:18;101333.41;;;17.82;100.00
58243;BME280;50118;53.232;8.252;2022-08-20T02:52:44;101342.47;;;17.81;100.00
58243;BME280;50118;53.232;8.252;2022-08-20T02:55:11;101339.25;;;17.85;100.00
58243;BME280;50118;53.232;8.252;2022-08-20T02:57:37;101335.03;;;17.91;100.00
58243;BME280;50118;53.232;8.252;2022-08-20T03:00:11;101334.91;;;17.84;100.00
58243;BME280;50118;53.232;8.252;2022-08-20T03:02:38;101332.22;;;17.84;100.00
58243;BME280;50118;53.232;8.252;2022-08-20T03:05:04;101335.09;;;17.83;100.00
58243;BME280;50118;53.232;8.252;2022-08-20T03:07:30;101327.19;;;17.81;100.00
58243;BME280;50118;53.232;8.252;2022-08-20T03:09:55;101329.31;;;17.86;100.00
58243;BME280;50118;53.232;8.252;2022-08-20T03:12:20;101328.19;;;17.80;100.00
58243;BME280;50118;53.232;8.252;2022-08-20T03:14:46;101334.56;;;17.79;100.00
58243;BME280;50118;53.232;8.252;2022-08-20T03:17:11;101330.41;;;17.77;100.00
58243;BME280;50118;53.232;8.252;2022-08-20T03:19:37;101330.06;;;17.80;100.00
58243;BME280;50118;53.232;8.252;2022-08-20T03:22:03;101328.84;;;17.82;100.00
58243;BME280;50118;53.232;8.252;2022-08-20T03:24:28;101331.88;;;17.79;100.00
58243;BME280;50118;53.232;8.252;2022-08-20T03:26:54;101337.78;;;17.83;100.00
58243;BME280;50118;53.232;8.252;2022-08-20T03:29:19;101339.63;;;17.82;100.00
58243;BME280;50118;53.232;8.252;2022-08-20T03:31:45;101346.22;;;17.80;100.00
58243;BME280;50118;53.232;8.252;2022-08-20T03:34:10;101338.31;;;17.78;100.00
58243;BME280;50118;53.232;8.252;2022-08-20T03:36:36;101338.13;;;17.80;100.00
58243;BME280;50118;53.232;8.252;2022-08-20T03:39:05;101335.97;;;17.75;100.00
58243;BME280;50118;53.232;8.252;2022-08-20T03:41:31;101334.47;;;17.72;100.00
58243;BME280;50118;53.232;8.252;2022-08-20T03:43:57;101332.97;;;17.70;100.00
58243;BME280;50118;53.232;8.252;2022-08-20T03:46:23;101334.81;;;17.69;100.00
58243;BME280;50118;53.232;8.252;2022-08-20T03:48:52;101342.25;;;17.67;100.00
58243;BME280;50118;53.232;8.252;2022-08-20T03:51:18;101344.44;;;17.64;100.00
58243;BME280;50118;53.232;8.252;2022-08-20T03:53:43;101350.84;;;17.63;100.00
58243;BME280;50118;53.232;8.252;2022-08-20T03:56:09;101350.84;;;17.63;100.00
58243;BME280;50118;53.232;8.252;2022-08-20T03:58:35;101349.16;;;17.62;100.00
58243;BME280;50118;53.232;8.252;2022-08-20T04:01:00;101354.06;;;17.58;100.00
58243;BME280;50118;53.232;8.252;2022-08-20T04:03:26;101356.28;;;17.54;100.00
58243;BME280;50118;53.232;8.252;2022-08-20T04:05:53;101359.97;;;17.53;100.00
58243;BME280;50118;53.232;8.252;2022-08-20T04:08:25;101361.63;;;17.63;100.00
58243;BME280;50118;53.232;8.252;2022-08-20T04:10:55;101349.91;;;17.55;100.00
58243;BME280;50118;53.232;8.252;2022-08-20T04:13:25;101358.81;;;17.56;100.00
58243;BME280;50118;53.232;8.252;2022-08-20T04:15:50;101359.97;;;17.53;100.00
58243;BME280;50118;53.232;8.252;2022-08-20T04:18:20;101354.25;;;17.57;100.00
58243;BME280;50118;53.232;8.252;2022-08-20T04:20:49;101347.53;;;17.52;100.00
58243;BME280;50118;53.232;8.252;2022-08-20T04:23:15;101358.50;;;17.51;100.00
58243;BME280;50118;53.232;8.252;2022-08-20T04:26:01;101361.84;;;17.53;100.00
58243;BME280;50118;53.232;8.252;2022-08-20T04:28:27;101359.31;;;17.51;100.00
58243;BME280;50118;53.232;8.252;2022-08-20T04:30:54;101363.06;;;17.50;100.00
58243;BME280;50118;53.232;8.252;2022-08-20T04:33:21;101371.31;;;17.49;100.00
58243;BME280;50118;53.232;8.252;2022-08-20T04:35:48;101360.84;;;17.54;100.00
58243;BME280;50118;53.232;8.252;2022-08-20T04:38:16;101370.09;;;17.51;100.00
58243;BME280;50118;53.232;8.252;2022-08-20T04:40:42;101363.41;;;17.47;100.00
58243;BME280;50118;53.232;8.252;2022-08-20T04:43:27;101368.44;;;17.50;100.00
58243;BME280;50118;53.232;8.252;2022-08-20T04:45:54;101375.44;;;17.60;100.00
58243;BME280;50118;53.232;8.252;2022-08-20T04:48:24;101385.56;;;17.58;100.00
58243;BME280;50118;53.232;8.252;2022-08-20T04:50:52;101381.69;;;17.52;100.00
58243;BME280;50118;53.232;8.252;2022-08-20T04:53:20;101385.25;;;17.52;100.00
58243;BME280;50118;53.232;8.252;2022-08-20T04:55:46;101385.56;;;17.58;100.00
58243;BME280;50118;53.232;8.252;2022-08-20T04:58:22;101389.75;;;17.60;100.00
58243;BME280;50118;53.232;8.252;2022-08-20T05:00:54;101392.63;;;17.59;100.00
58243;BME280;50118;53.232;8.252;2022-08-20T05:03:20;101399.03;;;17.58;100.00
58243;BME280;50118;53.232;8.252;2022-08-20T05:05:47;101399.69;;;17.60;100.00
58243;BME280;50118;53.232;8.252;2022-08-20T05:08:14;101403.91;;;17.62;100.00
58243;BME280;50118;53.232;8.252;2022-08-20T05:10:40;101396.00;;;17.61;100.00
58243;BME280;50118;53.232;8.252;2022-08-20T05:13:07;101405.56;;;17.63;100.00
58243;BME280;50118;53.232;8.252;2022-08-20T05:15:33;101408.91;;;17.65;100.00
58243;BME280;50118;53.232;8.252;2022-08-20T05:18:01;101414.78;;;17.69;100.00
58243;BME280;50118;53.232;8.252;2022-08-20T05:20:30;101412.81;;;17.63;100.00
58243;BME280;50118;53.232;8.252;2022-08-20T05:23:00;101415.34;;;17.64;100.00
58243;BME280;50118;53.232;8.252;2022-08-20T05:25:29;101420.56;;;17.66;100.00
58243;BME280;50118;53.232;8.252;2022-08-20T05:28:11;101424.25;;;17.65;100.00
58243;BME280;50118;53.232;8.252;2022-08-20T05:30:41;101418.16;;;17.71;100.00
58243;BME280;50118;53.232;8.252;2022-08-20T05:33:08;101424.38;;;17.71;100.00
58243;BME280;50118;53.232;8.252;2022-08-20T05:35:37;101426.25;;;17.71;100.00
58243;BME280;50118;53.232;8.252;2022-08-20T05:38:18;101429.78;;;17.71;100.00
58243;BME280;50118;53.232;8.252;2022-08-20T05:40:45;101437.84;;;17.71;100.00
58243;BME280;50118;53.232;8.252;2022-08-20T05:43:17;101430.59;;;17.72;100.00
58243;BME280;50118;53.232;8.252;2022-08-20T05:45:44;101428.94;;;17.71;100.00
58243;BME280;50118;53.232;8.252;2022-08-20T05:48:16;101436.97;;;17.79;100.00
58243;BME280;50118;53.232;8.252;2022-08-20T05:50:44;101440.69;;;17.86;100.00
58243;BME280;50118;53.232;8.252;2022-08-20T05:53:10;101445.06;;;17.87;100.00
58243;BME280;50118;53.232;8.252;2022-08-20T05:55:37;101440.28;;;17.98;100.00
58243;BME280;50118;53.232;8.252;2022-08-20T05:58:04;101434.53;;;18.01;100.00
58243;BME280;50118;53.232;8.252;2022-08-20T06:00:31;101432.56;;;17.95;100.00
58243;BME280;50118;53.232;8.252;2022-08-20T06:02:57;101428.34;;;17.92;100.00
58243;BME280;50118;53.232;8.252;2022-08-20T06:05:41;101425.50;;;17.94;100.00
58243;BME280;50118;53.232;8.252;2022-08-20T06:08:08;101433.88;;;17.99;100.00
58243;BME280;50118;53.232;8.252;2022-08-20T06:10:35;101430.84;;;18.02;100.00
58243;BME280;50118;53.232;8.252;2022-08-20T06:13:01;101433.22;;;17.97;100.00
58243;BME280;50118;53.232;8.252;2022-08-20T06:15:28;101437.53;;;18.06;100.00
58243;BME280;50118;53.232;8.252;2022-08-20T06:17:54;101437.19;;;18.09;100.00
58243;BME280;50118;53.232;8.252;2022-08-20T06:20:20;101436.41;;;18.00;100.00
58243;BME280;50118;53.232;8.252;2022-08-20T06:22:45;101437.00;;;18.10;100.00
58243;BME280;50118;53.232;8.252;2022-08-20T06:25:11;101424.00;;;18.14;100.00
58243;BME280;50118;53.232;8.252;2022-08-20T06:27:38;101429.22;;;18.16;100.00
58243;BME280;50118;53.232;8.252;2022-08-20T06:30:06;101428.22;;;18.17;100.00
58243;BME280;50118;53.232;8.252;2022-08-20T06:32:32;101421.63;;;18.19;100.00
58243;BME280;50118;53.232;8.252;2022-08-20T06:34:58;101419.22;;;18.24;100.00
58243;BME280;50118;53.232;8.252;2022-08-20T06:37:27;101418.00;;;18.04;100.00
58243;BME280;50118;53.232;8.252;2022-08-20T06:39:53;101425.03;;;18.13;100.00
58243;BME280;50118;53.232;8.252;2022-08-20T06:42:19;101426.06;;;18.12;100.00
58243;BME280;50118;53.232;8.252;2022-08-20T06:44:46;101431.44;;;18.12;100.00
58243;BME280;50118;53.232;8.252;2022-08-20T06:47:14;101429.94;;;18.09;100.00
58243;BME280;50118;53.232;8.252;2022-08-20T06:49:39;101421.00;;;18.09;100.00
58243;BME280;50118;53.232;8.252;2022-08-20T06:52:05;101428.78;;;18.04;100.00
58243;BME280;50118;53.232;8.252;2022-08-20T06:54:31;101435.81;;;18.13;100.00
58243;BME280;50118;53.232;8.252;2022-08-20T06:56:59;101440.41;;;18.04;100.00
58243;BME280;50118;53.232;8.252;2022-08-20T06:59:24;101437.63;;;18.21;100.00
58243;BME280;50118;53.232;8.252;2022-08-20T07:01:50;101441.38;;;18.11;100.00
58243;BME280;50118;53.232;8.252;2022-08-20T07:04:16;101445.19;;;18.25;100.00
58243;BME280;50118;53.232;8.252;2022-08-20T07:06:42;101441.88;;;18.15;100.00
58243;BME280;50118;53.232;8.252;2022-08-20T07:09:08;101440.41;;;18.36;100.00
58243;BME280;50118;53.232;8.252;2022-08-20T07:11:34;101449.56;;;18.50;100.00
58243;BME280;50118;53.232;8.252;2022-08-20T07:14:00;101448.94;;;18.62;100.00
58243;BME280;50118;53.232;8.252;2022-08-20T07:16:29;101447.63;;;18.58;100.00
58243;BME280;50118;53.232;8.252;2022-08-20T07:18:55;101447.13;;;18.78;100.00
58243;BME280;50118;53.232;8.252;2022-08-20T07:21:20;101450.16;;;18.60;100.00
58243;BME280;50118;53.232;8.252;2022-08-20T07:23:46;101448.72;;;18.49;100.00
58243;BME280;50118;53.232;8.252;2022-08-20T07:26:13;101459.25;;;18.59;100.00
58243;BME280;50118;53.232;8.252;2022-08-20T07:28:39;101457.31;;;18.67;100.00
58243;BME280;50118;53.232;8.252;2022-08-20T07:31:07;101460.41;;;18.64;98.69
58243;BME280;50118;53.232;8.252;2022-08-20T07:33:52;101463.69;;;18.75;98.92
58243;BME280;50118;53.232;8.252;2022-08-20T07:36:17;101466.00;;;18.78;97.81
58243;BME280;50118;53.232;8.252;2022-08-20T07:38:43;101454.16;;;18.87;96.82
58243;BME280;50118;53.232;8.252;2022-08-20T07:41:12;101471.25;;;19.02;95.78
58243;BME280;50118;53.232;8.252;2022-08-20T07:43:40;101468.03;;;18.84;96.38
58243;BME280;50118;53.232;8.252;2022-08-20T07:46:06;101467.22;;;18.98;95.13
58243;BME280;50118;53.232;8.252;2022-08-20T07:48:38;101462.59;;;19.07;94.53
58243;BME280;50118;53.232;8.252;2022-08-20T07:51:04;101461.31;;;19.33;89.08
58243;BME280;50118;53.232;8.252;2022-08-20T07:53:35;101458.53;;;19.41;91.59
58243;BME280;50118;53.232;8.252;2022-08-20T07:56:05;101463.06;;;19.40;89.47
58243;BME280;50118;53.232;8.252;2022-08-20T07:58:33;101474.16;;;19.46;89.40
58243;BME280;50118;53.232;8.252;2022-08-20T08:01:00;101482.81;;;19.56;86.76
58243;BME280;50118;53.232;8.252;2022-08-20T08:03:26;101476.78;;;19.54;87.75
58243;BME280;50118;53.232;8.252;2022-08-20T08:05:54;101474.72;;;19.71;83.45
58243;BME280;50118;53.232;8.252;2022-08-20T08:08:23;101483.84;;;19.70;78.75
58243;BME280;50118;53.232;8.252;2022-08-20T08:10:54;101487.03;;;19.73;79.07
58243;BME280;50118;53.232;8.252;2022-08-20T08:13:21;101484.81;;;19.77;74.91
58243;BME280;50118;53.232;8.252;2022-08-20T08:15:53;101485.81;;;20.06;76.85
58243;BME280;50118;53.232;8.252;2022-08-20T08:18:29;101488.78;;;20.32;74.85
58243;BME280;50118;53.232;8.252;2022-08-20T08:20:57;101489.25;;;20.36;75.29
58243;BME280;50118;53.232;8.252;2022-08-20T08:23:23;101475.53;;;20.38;72.71
58243;BME280;50118;53.232;8.252;2022-08-20T08:25:50;101488.34;;;20.29;71.56
58243;BME280;50118;53.232;8.252;2022-08-20T08:28:17;101485.63;;;20.29;71.16
58243;BME280;50118;53.232;8.252;2022-08-20T08:30:44;101485.75;;;20.21;71.48
58243;BME280;50118;53.232;8.252;2022-08-20T08:33:28;101497.69;;;20.48;68.97
58243;BME280;50118;53.232;8.252;2022-08-20T08:36:00;101496.50;;;20.50;66.48
58243;BME280;50118;53.232;8.252;2022-08-20T08:38:28;101506.00;;;20.46;68.08
58243;BME280;50118;53.232;8.252;2022-08-20T08:40:56;101499.72;;;20.61;69.10
58243;BME280;50118;53.232;8.252;2022-08-20T08:43:24;101508.59;;;20.55;69.24
58243;BME280;50118;53.232;8.252;2022-08-20T08:46:06;101504.19;;;20.32;69.71
58243;BME280;50118;53.232;8.252;2022-08-20T08:48:36;101508.16;;;20.14;69.15
58243;BME280;50118;53.232;8.252;2022-08-20T08:51:05;101509.03;;;20.37;67.27
58243;BME280;50118;53.232;8.252;2022-08-20T08:53:45;101504.59;;;20.50;67.22
58243;BME280;50118;53.232;8.252;2022-08-20T08:56:13;101508.88;;;20.81;67.22
58243;BME280;50118;53.232;8.252;2022-08-20T08:58:40;101503.59;;;21.23;66.72
58243;BME280;50118;53.232;8.252;2022-08-20T09:01:14;101505.94;;;21.54;64.90
58243;BME280;50118;53.232;8.252;2022-08-20T09:03:41;101506.56;;;21.56;61.07
58243;BME280;50118;53.232;8.252;2022-08-20T09:06:13;101509.75;;;22.15;60.21
58243;BME280;50118;53.232;8.252;2022-08-20T09:08:57;101504.56;;;22.27;60.02
58243;BME280;50118;53.232;8.252;2022-08-20T09:11:25;101512.09;;;21.76;57.99
58243;BME280;50118;53.232;8.252;2022-08-20T09:13:51;101517.28;;;21.71;58.17
58243;BME280;50118;53.232;8.252;2022-08-20T09:16:19;101521.06;;;21.77;58.05
58243;BME280;50118;53.232;8.252;2022-08-20T09:18:46;101517.19;;;21.99;58.62
58243;BME280;50118;53.232;8.252;2022-08-20T09:21:12;101514.06;;;22.64;56.11
58243;BME280;50118;53.232;8.252;2022-08-20T09:23:39;101506.38;;;22.61;56.29
58243;BME280;50118;53.232;8.252;2022-08-20T09:26:05;101514.31;;;22.83;54.74
58243;BME280;50118;53.232;8.252;2022-08-20T09:28:31;101508.63;;;22.64;56.59
58243;BME280;50118;53.232;8.252;2022-08-20T09:30:57;101507.81;;;22.70;56.26
58243;BME280;50118;53.232;8.252;2022-08-20T09:33:22;101503.63;;;22.48;53.94
58243;BME280;50118;53.232;8.252;2022-08-20T09:35:48;101516.22;;;22.14;55.55
58243;BME280;50118;53.232;8.252;2022-08-20T09:38:13;101509.91;;;22.68;53.54
58243;BME280;50118;53.232;8.252;2022-08-20T09:40:39;101511.13;;;22.39;54.41
58243;BME280;50118;53.232;8.252;2022-08-20T09:43:05;101507.38;;;22.47;55.40
58243;BME280;50118;53.232;8.252;2022-08-20T09:45:31;101522.66;;;22.88;53.24
58243;BME280;50118;53.232;8.252;2022-08-20T09:47:57;101519.53;;;22.91;52.09
58243;BME280;50118;53.232;8.252;2022-08-20T09:50:28;101515.13;;;22.90;52.47
58243;BME280;50118;53.232;8.252;2022-08-20T09:52:56;101513.72;;;23.21;51.10
58243;BME280;50118;53.232;8.252;2022-08-20T09:57:56;101519.50;;;24.30;47.30
58243;BME280;50118;53.232;8.252;2022-08-20T10:00:23;101519.97;;;24.13;48.47
58243;BME280;50118;53.232;8.252;2022-08-20T10:02:48;101514.91;;;22.58;50.41
58243;BME280;50118;53.232;8.252;2022-08-20T10:05:15;101519.16;;;23.07;49.13
58243;BME280;50118;53.232;8.252;2022-08-20T10:07:41;101521.59;;;23.62;49.30
58243;BME280;50118;53.232;8.252;2022-08-20T10:10:09;101526.34;;;24.39;48.30
58243;BME280;50118;53.232;8.252;2022-08-20T10:12:34;101532.66;;;23.88;46.96
58243;BME280;50118;53.232;8.252;2022-08-20T10:15:00;101531.66;;;23.02;48.89
58243;BME280;50118;53.232;8.252;2022-08-20T10:17:25;101539.63;;;23.43;48.27
58243;BME280;50118;53.232;8.252;2022-08-20T10:19:51;101531.19;;;23.72;48.46
58243;BME280;50118;53.232;8.252;2022-08-20T10:22:16;101536.50;;;23.33;48.06
58243;BME280;50118;53.232;8.252;2022-08-20T10:24:42;101532.34;;;23.10;48.56
58243;BME280;50118;53.232;8.252;2022-08-20T10:27:07;101527.25;;;23.47;48.09
58243;BME280;50118;53.232;8.252;2022-08-20T10:29:33;101528.97;;;23.35;49.75
58243;BME280;50118;53.232;8.252;2022-08-20T10:32:08;101531.63;;;23.75;48.37
58243;BME280;50118;53.232;8.252;2022-08-20T10:34:36;101520.19;;;23.26;51.84
58243;BME280;50118;53.232;8.252;2022-08-20T10:37:01;101523.72;;;23.34;53.38
58243;BME280;50118;53.232;8.252;2022-08-20T10:39:27;101529.16;;;23.54;50.78
58243;BME280;50118;53.232;8.252;2022-08-20T10:41:52;101525.34;;;23.68;50.97
58243;BME280;50118;53.232;8.252;2022-08-20T10:44:18;101529.00;;;24.07;49.33
58243;BME280;50118;53.232;8.252;2022-08-20T10:46:43;101518.72;;;23.24;51.22
58243;BME280;50118;53.232;8.252;2022-08-20T10:49:10;101528.34;;;23.06;52.07
58243;BME280;50118;53.232;8.252;2022-08-20T10:51:36;101527.69;;;23.04;52.46
58243;BME280;50118;53.232;8.252;2022-08-20T10:54:01;101520.19;;;23.20;52.38
58243;BME280;50118;53.232;8.252;2022-08-20T10:56:27;101520.81;;;23.22;51.39
58243;BME280;50118;53.232;8.252;2022-08-20T10:58:52;101525.75;;;23.65;49.78
58243;BME280;50118;53.232;8.252;2022-08-20T11:01:18;101517.38;;;23.73;48.82
58243;BME280;50118;53.232;8.252;2022-08-20T11:03:43;101516.88;;;24.03;47.20
58243;BME280;50118;53.232;8.252;2022-08-20T11:06:08;101515.38;;;24.14;48.16
58243;BME280;50118;53.232;8.252;2022-08-20T11:08:34;101515.91;;;24.29;45.86
58243;BME280;50118;53.232;8.252;2022-08-20T11:10:59;101523.19;;;23.97;45.14
58243;BME280;50118;53.232;8.252;2022-08-20T11:13:25;101524.44;;;24.01;43.53
58243;BME280;50118;53.232;8.252;2022-08-20T11:15:50;101531.22;;;24.23;43.65
58243;BME280;50118;53.232;8.252;2022-08-20T11:18:16;101533.78;;;25.14;41.49
58243;BME280;50118;53.232;8.252;2022-08-20T11:20:41;101538.97;;;24.97;41.58
58243;BME280;50118;53.232;8.252;2022-08-20T11:23:07;101533.34;;;25.17;43.05
58243;BME280;50118;53.232;8.252;2022-08-20T11:25:32;101531.78;;;25.53;46.15
58243;BME280;50118;53.232;8.252;2022-08-20T11:27:58;101529.06;;;25.28;44.39
58243;BME280;50118;53.232;8.252;2022-08-20T11:30:30;101537.38;;;24.89;44.38
58243;BME280;50118;53.232;8.252;2022-08-20T11:32:57;101531.84;;;24.71;45.28
58243;BME280;50118;53.232;8.252;2022-08-20T11:35:24;101522.91;;;25.39;43.79
58243;BME280;50118;53.232;8.252;2022-08-20T11:37:51;101534.28;;;25.04;43.56
58243;BME280;50118;53.232;8.252;2022-08-20T11:40:16;101525.22;;;24.85;45.82
58243;BME280;50118;53.232;8.252;2022-08-20T11:42:42;101531.53;;;25.36;44.83
58243;BME280;50118;53.232;8.252;2022-08-20T11:45:08;101528.59;;;26.12;42.35
58243;BME280;50118;53.232;8.252;2022-08-20T11:47:33;101523.91;;;25.63;44.60
58243;BME280;50118;53.232;8.252;2022-08-20T11:50:05;101531.03;;;26.01;43.36
58243;BME280;50118;53.232;8.252;2022-08-20T11:52:31;101521.69;;;25.90;42.91
58243;BME280;50118;53.232;8.252;2022-08-20T11:54:58;101520.88;;;26.08;42.88
58243;BME280;50118;53.232;8.252;2022-08-20T11:57:29;101509.44;;;27.14;38.27
58243;BME280;50118;53.232;8.252;2022-08-20T11:59:58;101514.38;;;26.70;39.98
58243;BME280;50118;53.232;8.252;2022-08-20T12:02:25;101518.84;;;27.42;37.17
58243;BME280;50118;53.232;8.252;2022-08-20T12:04:51;101515.72;;;27.27;35.94
58243;BME280;50118;53.232;8.252;2022-08-20T12:07:20;101519.50;;;26.78;38.57
58243;BME280;50118;53.232;8.252;2022-08-20T12:09:46;101519.63;;;27.07;36.92
58243;BME280;50118;53.232;8.252;2022-08-20T12:12:12;101527.94;;;25.98;40.09
58243;BME280;50118;53.232;8.252;2022-08-20T12:14:38;101525.69;;;26.25;41.02
58243;BME280;50118;53.232;8.252;2022-08-20T12:17:09;101533.59;;;25.41;42.93
58243;BME280;50118;53.232;8.252;2022-08-20T12:19:37;101531.72;;;25.09;42.85
58243;BME280;50118;53.232;8.252;2022-08-20T12:22:03;101518.75;;;25.55;42.51
58243;BME280;50118;53.232;8.252;2022-08-20T12:24:29;101532.75;;;24.90;43.92
58243;BME280;50118;53.232;8.252;2022-08-20T12:26:54;101528.72;;;24.22;44.52
58243;BME280;50118;53.232;8.252;2022-08-20T12:29:19;101529.09;;;24.71;43.40
58243;BME280;50118;53.232;8.252;2022-08-20T12:31:45;101533.47;;;25.04;42.02
58243;BME280;50118;53.232;8.252;2022-08-20T12:34:10;101531.78;;;25.53;43.02
58243;BME280;50118;53.232;8.252;2022-08-20T12:36:35;101532.50;;;26.04;41.14
58243;BME280;50118;53.232;8.252;2022-08-20T12:39:01;101525.00;;;26.30;40.47
58243;BME280;50118;53.232;8.252;2022-08-20T12:41:26;101530.19;;;25.64;40.53
58243;BME280;50118;53.232;8.252;2022-08-20T12:43:52;101539.19;;;25.21;42.22
58243;BME280;50118;53.232;8.252;2022-08-20T12:46:17;101529.06;;;25.28;43.40
58243;BME280;50118;53.232;8.252;2022-08-20T12:48:43;101541.81;;;24.45;44.66
58243;BME280;50118;53.232;8.252;2022-08-20T12:51:08;101537.28;;;24.96;42.23
58243;BME280;50118;53.232;8.252;2022-08-20T12:53:33;101536.00;;;24.98;42.63